createdAt,value
2023-03-29T00:01:42.094Z,99223.41
2023-03-29T00:04:10.168Z,99223.63
2023-03-29T00:06:37.876Z,99233.78
2023-03-29T00:09:06.035Z,99227.56
2023-03-29T00:11:33.090Z,99232.75
2023-03-29T00:14:01.336Z,99224.88
2023-03-29T00:16:28.209Z,99225.94
2023-03-29T00:18:55.419Z,99219.13
2023-03-29T00:21:22.295Z,99222.88
2023-03-29T00:23:49.098Z,99222.66
2023-03-29T00:26:16.006Z,99224.13
2023-03-29T00:28:42.804Z,99226.56
2023-03-29T00:31:13.486Z,99226.81
2023-03-29T00:33:41.484Z,99223.47
2023-03-29T00:36:10.535Z,99218.06
2023-03-29T00:38:38.145Z,99220.38
2023-03-29T00:41:07.876Z,99220.59
2023-03-29T00:43:56.622Z,99228.66
2023-03-29T00:46:27.237Z,99225.75
2023-03-29T00:48:57.907Z,99217.47
2023-03-29T00:51:28.083Z,99217.06
2023-03-29T00:53:59.052Z,99226.38
2023-03-29T00:56:30.193Z,99219.97
2023-03-29T00:59:02.264Z,99218.13
2023-03-29T01:01:38.100Z,99217.28
2023-03-29T01:04:09.863Z,99213.78
2023-03-29T01:06:39.272Z,99221.63
2023-03-29T01:09:10.355Z,99219.97
2023-03-29T01:11:42.102Z,99221.63
2023-03-29T01:14:15.347Z,99209.00
2023-03-29T01:16:45.995Z,99212.53
2023-03-29T01:19:19.082Z,99203.63
2023-03-29T01:21:51.618Z,99205.50
2023-03-29T01:24:42.044Z,99205.09
2023-03-29T01:27:15.872Z,99202.63
2023-03-29T01:29:48.958Z,99199.94
2023-03-29T01:32:20.149Z,99214.41
2023-03-29T01:34:51.840Z,99232.81
2023-03-29T01:37:24.940Z,99223.69
2023-03-29T01:39:52.779Z,99231.97
2023-03-29T01:42:32.519Z,99241.94
2023-03-29T01:45:10.203Z,99239.03
2023-03-29T01:47:45.519Z,99233.66
2023-03-29T01:50:17.740Z,99233.84
2023-03-29T01:52:50.568Z,99231.38
2023-03-29T01:55:23.069Z,99234.28
2023-03-29T01:57:52.216Z,99228.91
2023-03-29T02:00:24.869Z,99227.84
2023-03-29T02:02:55.047Z,99226.00
2023-03-29T02:05:24.537Z,99225.16
2023-03-29T02:07:53.013Z,99223.53
2023-03-29T02:10:21.685Z,99219.78
2023-03-29T02:12:48.738Z,99214.41
2023-03-29T02:15:21.527Z,99227.84
2023-03-29T02:17:50.918Z,99229.50
2023-03-29T02:20:22.545Z,99237.81
2023-03-29T02:22:57.580Z,99238.22
2023-03-29T02:25:26.047Z,99227.25
2023-03-29T02:27:53.659Z,99220.22
2023-03-29T02:30:21.409Z,99214.25
2023-03-29T02:32:54.425Z,99200.38
2023-03-29T02:35:27.862Z,99198.13
2023-03-29T02:37:57.394Z,99192.75
2023-03-29T02:40:26.145Z,99194.38
2023-03-29T02:42:56.018Z,99192.31
2023-03-29T02:45:25.637Z,99190.66
2023-03-29T02:47:56.740Z,99178.03
2023-03-29T02:50:25.638Z,99175.34
2023-03-29T02:52:59.269Z,99177.84
2023-03-29T02:55:34.631Z,99173.50
2023-03-29T02:58:08.297Z,99179.91
2023-03-29T03:00:38.350Z,99170.81
2023-03-29T03:03:08.004Z,99172.47
2023-03-29T03:05:36.079Z,99177.00
2023-03-29T03:08:04.586Z,99172.47
2023-03-29T03:10:33.265Z,99170.81
2023-03-29T03:13:00.430Z,99164.81
2023-03-29T03:15:31.117Z,99171.84
2023-03-29T03:17:58.177Z,99169.75
2023-03-29T03:20:26.621Z,99176.19
2023-03-29T03:22:54.901Z,99165.84
2023-03-29T03:25:21.799Z,99169.59
2023-03-29T03:27:50.683Z,99172.69
2023-03-29T03:30:21.049Z,99167.31
2023-03-29T03:33:27.485Z,99170.00
2023-03-29T03:36:29.154Z,99157.41
2023-03-29T03:38:57.087Z,99155.31
2023-03-29T03:41:26.158Z,99151.78
2023-03-29T03:43:53.966Z,99157.16
2023-03-29T03:46:21.678Z,99151.78
2023-03-29T03:48:49.250Z,99150.78
2023-03-29T03:51:21.472Z,99162.53
2023-03-29T03:53:50.944Z,99156.97
2023-03-29T03:56:35.766Z,99154.31
2023-03-29T03:59:23.860Z,99150.56
2023-03-29T04:02:00.497Z,99157.63
2023-03-29T04:04:28.036Z,99169.19
2023-03-29T04:07:13.080Z,99158.44
2023-03-29T04:10:00.467Z,99159.69
2023-03-29T04:12:40.098Z,99159.31
2023-03-29T04:15:08.760Z,99158.03
2023-03-29T04:17:36.920Z,99158.88
2023-03-29T04:20:24.773Z,99150.81
2023-03-29T04:22:52.028Z,99154.31
2023-03-29T04:25:23.799Z,99158.25
2023-03-29T04:28:16.526Z,99157.41
2023-03-29T04:30:52.254Z,99155.56
2023-03-29T04:33:29.402Z,99159.09
2023-03-29T04:35:59.994Z,99148.13
2023-03-29T04:38:26.984Z,99149.34
2023-03-29T04:40:56.306Z,99153.72
2023-03-29T04:43:40.371Z,99141.09
2023-03-29T04:46:40.345Z,99136.13
2023-03-29T04:49:26.262Z,99141.47
2023-03-29T04:51:54.943Z,99135.41
2023-03-29T04:54:26.387Z,99137.03
2023-03-29T04:57:02.204Z,99137.22
2023-03-29T04:59:37.353Z,99128.50
2023-03-29T05:02:14.479Z,99134.84
2023-03-29T05:04:46.834Z,99128.44
2023-03-29T05:07:17.661Z,99126.75
2023-03-29T05:09:45.116Z,99126.69
2023-03-29T05:12:14.361Z,99125.00
2023-03-29T05:15:01.424Z,99130.31
2023-03-29T05:17:29.124Z,99128.41
2023-03-29T05:20:07.172Z,99123.97
2023-03-29T05:22:34.342Z,99121.25
2023-03-29T05:25:01.130Z,99132.19
2023-03-29T05:27:29.883Z,99110.78
2023-03-29T05:30:09.016Z,99109.09
2023-03-29T05:33:05.866Z,99112.75
2023-03-29T05:35:36.017Z,99102.19
2023-03-29T05:38:06.465Z,99102.53
2023-03-29T05:40:35.782Z,99110.41
2023-03-29T05:43:20.970Z,99107.25
2023-03-29T05:45:48.747Z,99106.81
2023-03-29T05:48:15.695Z,99105.56
2023-03-29T05:50:46.930Z,99109.06
2023-03-29T05:53:13.809Z,99105.34
2023-03-29T05:55:42.441Z,99105.34
2023-03-29T05:58:12.986Z,99106.97
2023-03-29T06:00:42.913Z,99116.91
2023-03-29T06:03:33.679Z,99114.44
2023-03-29T06:06:03.869Z,99116.53
2023-03-29T06:08:32.881Z,99115.72
2023-03-29T06:11:16.707Z,99113.22
2023-03-29T06:14:02.455Z,99110.41
2023-03-29T06:16:31.120Z,99116.63
2023-03-29T06:18:58.238Z,99118.47
2023-03-29T06:21:27.232Z,99123.63
2023-03-29T06:23:54.674Z,99119.91
2023-03-29T06:26:22.382Z,99116.97
2023-03-29T06:28:52.059Z,99129.38
2023-03-29T06:31:21.106Z,99129.88
2023-03-29T06:33:52.201Z,99134.78
2023-03-29T06:36:35.020Z,99131.66
2023-03-29T06:39:08.498Z,99137.19
2023-03-29T06:42:20.194Z,99139.44
2023-03-29T06:45:07.699Z,99132.56
2023-03-29T06:47:36.558Z,99132.13
2023-03-29T06:50:05.896Z,99132.25
2023-03-29T06:53:02.923Z,99135.09
2023-03-29T06:55:31.622Z,99123.44
2023-03-29T06:58:05.624Z,99128.50
2023-03-29T07:00:35.778Z,99130.91
2023-03-29T07:03:13.593Z,99137.03
2023-03-29T07:05:42.567Z,99146.94
2023-03-29T07:08:15.377Z,99154.34
2023-03-29T07:10:54.206Z,99166.31
2023-03-29T07:13:21.103Z,99175.38
2023-03-29T07:15:49.630Z,99178.22
2023-03-29T07:18:22.119Z,99175.63
2023-03-29T07:20:52.058Z,99170.38
2023-03-29T07:23:19.457Z,99160.78
2023-03-29T07:25:47.650Z,99153.31
2023-03-29T07:28:14.676Z,99142.03
2023-03-29T07:30:41.474Z,99145.34
2023-03-29T07:33:12.638Z,99154.84
2023-03-29T07:35:52.807Z,99152.16
2023-03-29T07:38:20.546Z,99164.78
2023-03-29T07:40:54.517Z,99161.53
2023-03-29T07:43:44.883Z,99164.22
2023-03-29T07:46:14.246Z,99160.47
2023-03-29T07:48:41.393Z,99154.63
2023-03-29T07:51:11.974Z,99163.28
2023-03-29T07:53:50.018Z,99160.34
2023-03-29T07:56:36.065Z,99155.56
2023-03-29T07:59:11.914Z,99155.81
2023-03-29T08:01:41.201Z,99158.50
2023-03-29T08:04:31.261Z,99157.44
2023-03-29T08:07:21.345Z,99160.13
2023-03-29T08:09:54.222Z,99162.03
2023-03-29T08:12:29.657Z,99167.16
2023-03-29T08:14:58.030Z,99171.53
2023-03-29T08:17:29.572Z,99175.88
2023-03-29T08:19:58.058Z,99170.25
2023-03-29T08:22:26.504Z,99171.88
2023-03-29T08:25:07.017Z,99176.44
2023-03-29T08:27:39.090Z,99164.63
2023-03-29T08:30:09.557Z,99163.56
2023-03-29T08:32:39.228Z,99163.56
2023-03-29T08:35:09.728Z,99151.13
2023-03-29T08:37:45.957Z,99164.41
2023-03-29T08:40:21.523Z,99153.63
2023-03-29T08:43:34.852Z,99146.31
2023-03-29T08:46:35.908Z,99144.47
2023-03-29T08:49:21.147Z,99149.25
2023-03-29T08:51:53.136Z,99147.38
2023-03-29T08:54:26.871Z,99143.84
2023-03-29T08:57:22.063Z,99152.16
2023-03-29T08:59:58.476Z,99161.94
2023-03-29T09:02:27.817Z,99165.44
2023-03-29T09:05:08.726Z,99167.91
2023-03-29T09:07:44.503Z,99158.41
2023-03-29T09:10:16.795Z,99156.53
2023-03-29T09:12:58.669Z,99158.16
2023-03-29T09:15:31.036Z,99164.97
2023-03-29T09:18:32.941Z,99154.41
2023-03-29T09:21:04.439Z,99153.84
2023-03-29T09:23:49.137Z,99156.06
2023-03-29T09:26:40.196Z,99146.56
2023-03-29T09:29:37.476Z,99144.91
2023-03-29T09:32:16.960Z,99152.16
2023-03-29T09:34:47.743Z,99149.13
2023-03-29T09:37:25.449Z,99150.97
2023-03-29T09:39:53.323Z,99152.03
2023-03-29T09:42:29.237Z,99154.50
2023-03-29T09:45:08.388Z,99154.50
2023-03-29T09:47:47.803Z,99148.06
2023-03-29T09:50:30.056Z,99134.44
2023-03-29T09:52:59.420Z,99130.34
2023-03-29T09:55:31.305Z,99126.00
2023-03-29T09:58:14.897Z,99121.19
2023-03-29T10:00:46.188Z,99120.97
2023-03-29T10:03:19.140Z,99120.72
2023-03-29T10:05:54.575Z,99116.97
2023-03-29T10:08:27.302Z,99112.66
2023-03-29T10:10:58.405Z,99106.41
2023-03-29T10:13:30.626Z,99110.16
2023-03-29T10:16:02.334Z,99111.59
2023-03-29T10:18:30.982Z,99103.50
2023-03-29T10:21:03.725Z,99103.50
2023-03-29T10:23:32.546Z,99103.94
2023-03-29T10:26:00.609Z,99109.34
2023-03-29T10:28:30.983Z,99107.69
2023-03-29T10:30:59.892Z,99106.91
2023-03-29T10:33:31.292Z,99116.03
2023-03-29T10:35:58.386Z,99108.16
2023-03-29T10:38:29.458Z,99108.63
2023-03-29T10:41:04.821Z,99110.72
2023-03-29T10:43:38.553Z,99110.72
2023-03-29T10:46:08.899Z,99109.53
2023-03-29T10:48:36.210Z,99109.53
2023-03-29T10:51:06.024Z,99102.06
2023-03-29T10:53:35.198Z,99102.06
2023-03-29T10:56:23.016Z,99102.88
2023-03-29T10:59:08.667Z,99105.56
2023-03-29T11:01:44.852Z,99102.88
2023-03-29T11:04:34.726Z,99105.56
2023-03-29T11:07:22.760Z,99102.06
2023-03-29T11:09:59.390Z,99102.28
2023-03-29T11:12:34.393Z,99107.06
2023-03-29T11:15:15.033Z,99097.13
2023-03-29T11:17:55.498Z,99098.19
2023-03-29T11:20:32.904Z,99097.13
2023-03-29T11:23:09.857Z,99082.00
2023-03-29T11:25:46.375Z,99084.69
2023-03-29T11:28:21.327Z,99083.28
2023-03-29T11:30:57.492Z,99087.00
2023-03-29T11:33:37.532Z,99079.75
2023-03-29T11:36:12.707Z,99081.41
2023-03-29T11:38:48.214Z,99077.66
2023-03-29T11:41:18.643Z,99075.78
2023-03-29T11:43:49.899Z,99070.16
2023-03-29T11:46:21.754Z,99072.63
2023-03-29T11:48:53.908Z,99075.53
2023-03-29T11:51:25.865Z,99080.38
2023-03-29T11:54:01.793Z,99076.84
2023-03-29T11:56:35.023Z,99074.97
2023-03-29T11:59:07.538Z,99074.97
2023-03-29T12:01:41.324Z,99073.91
2023-03-29T12:04:14.955Z,99073.31
2023-03-29T12:06:50.682Z,99079.53
2023-03-29T12:09:27.586Z,99084.09
2023-03-29T12:12:01.906Z,99072.28
2023-03-29T12:14:38.251Z,99068.75
2023-03-29T12:17:12.615Z,99073.91
2023-03-29T12:19:44.572Z,99062.91
2023-03-29T12:22:11.462Z,99068.28
2023-03-29T12:24:44.115Z,99064.75
2023-03-29T12:27:22.255Z,99061.50
2023-03-29T12:30:08.676Z,99055.59
2023-03-29T12:32:48.792Z,99055.59
2023-03-29T12:35:59.009Z,99054.53
2023-03-29T12:38:48.154Z,99051.84
2023-03-29T12:41:37.546Z,99048.13
2023-03-29T12:44:36.813Z,99045.44
2023-03-29T12:47:20.418Z,99048.13
2023-03-29T12:49:55.667Z,99040.59
2023-03-29T12:52:27.341Z,99033.94
2023-03-29T12:54:57.360Z,99031.00
2023-03-29T12:57:28.162Z,99031.84
2023-03-29T12:59:56.402Z,99035.34
2023-03-29T13:02:35.272Z,99032.63
2023-03-29T13:05:05.613Z,99022.69
2023-03-29T13:07:47.169Z,99023.28
2023-03-29T13:10:31.380Z,99015.19
2023-03-29T13:13:11.232Z,99016.44
2023-03-29T13:15:39.305Z,99014.00
2023-03-29T13:18:20.431Z,99017.28
2023-03-29T13:20:59.111Z,99010.03
2023-03-29T13:23:36.438Z,99003.81
2023-03-29T13:26:34.030Z,98993.34
2023-03-29T13:29:17.514Z,98999.81
2023-03-29T13:31:50.397Z,98991.50
2023-03-29T13:34:31.322Z,98992.09
2023-03-29T13:37:08.904Z,98991.03
2023-03-29T13:39:36.984Z,98993.50
2023-03-29T13:42:21.669Z,98980.25
2023-03-29T13:44:51.491Z,98978.59
2023-03-29T13:47:58.691Z,98983.75
2023-03-29T13:50:37.122Z,98983.50
2023-03-29T13:53:13.834Z,98977.09
2023-03-29T13:55:48.126Z,98977.09
2023-03-29T13:58:27.361Z,98973.56
2023-03-29T14:01:00.554Z,98980.81
2023-03-29T14:03:30.141Z,98976.25
2023-03-29T14:06:00.508Z,98974.38
2023-03-29T14:08:32.015Z,98973.09
2023-03-29T14:11:02.251Z,98968.72
2023-03-29T14:13:29.937Z,98966.28
2023-03-29T14:16:02.975Z,98960.63
2023-03-29T14:18:33.996Z,98963.34
2023-03-29T14:21:01.879Z,98963.94
2023-03-29T14:23:33.219Z,98958.53
2023-03-29T14:26:05.872Z,98956.91
2023-03-29T14:28:33.170Z,98955.25
2023-03-29T14:30:59.960Z,98953.16
2023-03-29T14:33:28.817Z,98946.91
2023-03-29T14:35:57.197Z,98942.34
2023-03-29T14:38:27.067Z,98932.41
2023-03-29T14:41:00.154Z,98942.13
2023-03-29T14:43:30.512Z,98942.94
2023-03-29T14:45:57.703Z,98939.44
2023-03-29T14:48:25.033Z,98931.09
2023-03-29T14:50:52.483Z,98925.72
2023-03-29T14:53:21.541Z,98937.06
2023-03-29T14:55:51.734Z,98925.25
2023-03-29T14:58:23.712Z,98921.50
2023-03-29T15:00:51.869Z,98928.53
2023-03-29T15:03:22.780Z,98925.25
2023-03-29T15:05:54.031Z,98909.06
2023-03-29T15:08:30.916Z,98900.72
2023-03-29T15:10:58.270Z,98906.97
2023-03-29T15:13:27.524Z,98908.81
2023-03-29T15:15:59.146Z,98909.88
2023-03-29T15:18:31.551Z,98901.78
2023-03-29T15:20:59.090Z,98910.09
2023-03-29T15:23:26.663Z,98910.72
2023-03-29T15:25:57.054Z,98912.78
2023-03-29T15:28:29.191Z,98894.97
2023-03-29T15:31:07.885Z,98909.06
2023-03-29T15:33:37.636Z,98905.31
2023-03-29T15:36:06.818Z,98896.59
2023-03-29T15:38:43.282Z,98897.22
2023-03-29T15:41:13.572Z,98902.84
2023-03-29T15:43:42.373Z,98894.75
2023-03-29T15:46:11.476Z,98889.38
2023-03-29T15:48:38.545Z,98879.63
2023-03-29T15:51:06.897Z,98880.66
2023-03-29T15:53:35.093Z,98877.16
2023-03-29T15:56:05.436Z,98869.28
2023-03-29T15:58:34.666Z,98867.66
2023-03-29T16:01:13.261Z,98857.66
2023-03-29T16:03:40.660Z,98847.94
2023-03-29T16:06:10.717Z,98860.03
2023-03-29T16:08:37.692Z,98845.94
2023-03-29T16:11:06.786Z,98848.63
2023-03-29T16:13:33.811Z,98847.25
2023-03-29T16:16:00.841Z,98846.44
2023-03-29T16:18:49.518Z,98835.06
2023-03-29T16:21:18.761Z,98824.03
2023-03-29T16:23:46.481Z,98800.22
2023-03-29T16:26:14.819Z,98800.22
2023-03-29T16:28:42.145Z,98786.75
2023-03-29T16:31:10.975Z,98800.22
2023-03-29T16:33:38.109Z,98798.81
2023-03-29T16:36:08.042Z,98802.13
2023-03-29T16:38:35.095Z,98777.84
2023-03-29T16:41:02.661Z,98780.53
2023-03-29T16:43:29.621Z,98772.44
2023-03-29T16:45:57.046Z,98767.28
2023-03-29T16:48:24.024Z,98767.53
2023-03-29T16:50:51.340Z,98775.84
2023-03-29T16:53:19.942Z,98771.53
2023-03-29T16:55:47.254Z,98768.00
2023-03-29T16:58:15.586Z,98768.00
2023-03-29T17:00:44.429Z,98768.81
2023-03-29T17:03:13.579Z,98762.28
2023-03-29T17:05:42.540Z,98757.91
2023-03-29T17:08:10.242Z,98758.19
2023-03-29T17:10:39.608Z,98750.88
2023-03-29T17:13:06.879Z,98751.97
2023-03-29T17:15:34.820Z,98748.44
2023-03-29T17:18:02.944Z,98738.94
2023-03-29T17:20:30.057Z,98747.25
2023-03-29T17:22:56.792Z,98743.78
2023-03-29T17:25:24.967Z,98744.84
2023-03-29T17:27:54.084Z,98738.63
2023-03-29T17:30:21.197Z,98732.38
2023-03-29T17:32:48.424Z,98747.75
2023-03-29T17:35:16.034Z,98737.22
2023-03-29T17:37:43.046Z,98736.63
2023-03-29T17:40:14.343Z,98741.22
2023-03-29T17:42:42.171Z,98733.91
2023-03-29T17:45:11.519Z,98734.41
2023-03-29T17:47:39.048Z,98729.81
2023-03-29T17:50:07.641Z,98727.38
2023-03-29T17:52:35.982Z,98717.09
2023-03-29T17:55:03.234Z,98719.50
2023-03-29T17:57:30.494Z,98706.03
2023-03-29T17:59:57.278Z,98710.88
2023-03-29T18:02:25.778Z,98702.19
2023-03-29T18:04:52.868Z,98706.53
2023-03-29T18:07:19.820Z,98708.72
2023-03-29T18:09:46.759Z,98706.41
2023-03-29T18:12:13.824Z,98706.72
2023-03-29T18:14:40.765Z,98711.06
2023-03-29T18:17:07.612Z,98700.28
2023-03-29T18:19:36.358Z,98702.72
2023-03-29T18:22:04.133Z,98707.66
2023-03-29T18:24:31.272Z,98703.88
2023-03-29T18:26:58.073Z,98702.50
2023-03-29T18:32:12.232Z,98706.50
2023-03-29T18:34:40.460Z,98712.94
2023-03-29T18:37:27.429Z,98713.19
2023-03-29T18:39:54.767Z,98712.34
2023-03-29T18:42:21.931Z,98711.31
2023-03-29T18:44:49.324Z,98713.19
2023-03-29T18:47:18.229Z,98721.84
2023-03-29T18:49:47.304Z,98719.97
2023-03-29T18:52:34.412Z,98710.03
2023-03-29T18:55:01.467Z,98709.78
2023-03-29T18:57:28.339Z,98714.91
2023-03-29T18:59:55.483Z,98710.34
2023-03-29T19:02:22.331Z,98703.88
2023-03-29T19:04:50.877Z,98712.56
2023-03-29T19:07:17.974Z,98712.56
2023-03-29T19:09:46.016Z,98714.44
2023-03-29T19:12:12.822Z,98709.88
2023-03-29T19:14:39.947Z,98708.56
2023-03-29T19:17:06.755Z,98715.84
2023-03-29T19:19:33.705Z,98709.66
2023-03-29T19:22:02.205Z,98713.38
2023-03-29T19:24:29.171Z,98715.28
2023-03-29T19:26:56.683Z,98710.94
2023-03-29T19:29:23.514Z,98713.03
2023-03-29T19:31:51.930Z,98713.03
2023-03-29T19:34:21.281Z,98710.81
2023-03-29T19:36:48.383Z,98712.94
2023-03-29T19:39:16.811Z,98709.88
2023-03-29T19:41:43.897Z,98710.72
2023-03-29T19:44:11.042Z,98708.25
2023-03-29T19:46:39.003Z,98704.16
2023-03-29T19:49:06.214Z,98707.09
2023-03-29T19:51:32.971Z,98692.22
2023-03-29T19:54:01.604Z,98704.53
2023-03-29T19:56:30.503Z,98693.19
2023-03-29T19:58:57.285Z,98693.44
2023-03-29T20:01:27.103Z,98696.91
2023-03-29T20:03:55.430Z,98685.34
2023-03-29T20:06:22.296Z,98698.00
2023-03-29T20:08:51.456Z,98688.50
2023-03-29T20:11:23.657Z,98688.28
2023-03-29T20:13:52.261Z,98688.28
2023-03-29T20:16:19.620Z,98677.50
2023-03-29T20:18:46.722Z,98679.13
2023-03-29T20:21:17.482Z,98675.59
2023-03-29T20:23:44.634Z,98678.56
2023-03-29T20:26:11.667Z,98667.19
2023-03-29T20:28:38.881Z,98668.25
2023-03-29T20:31:11.016Z,98670.94
2023-03-29T20:36:26.841Z,98673.03
2023-03-29T20:38:56.205Z,98667.09
2023-03-29T20:41:23.225Z,98666.44
2023-03-29T20:43:58.358Z,98669.38
2023-03-29T20:46:33.763Z,98670.22
2023-03-29T20:49:01.286Z,98669.66
2023-03-29T20:51:30.365Z,98663.66
2023-03-29T20:54:04.772Z,98670.69
2023-03-29T20:56:33.891Z,98677.38
2023-03-29T20:59:01.072Z,98670.91
2023-03-29T21:01:30.206Z,98667.41
2023-03-29T21:03:57.179Z,98671.19
2023-03-29T21:06:24.392Z,98673.28
2023-03-29T21:08:52.561Z,98670.56
2023-03-29T21:11:20.253Z,98658.16
2023-03-29T21:13:47.408Z,98652.19
2023-03-29T21:16:14.480Z,98653.25
2023-03-29T21:18:43.394Z,98653.25
2023-03-29T21:21:11.609Z,98650.78
2023-03-29T21:23:39.482Z,98635.69
2023-03-29T21:26:07.826Z,98647.75
2023-03-29T21:28:34.972Z,98656.91
2023-03-29T21:31:04.675Z,98659.00
2023-03-29T21:33:31.992Z,98658.19
2023-03-29T21:36:00.874Z,98653.63
2023-03-29T21:38:28.659Z,98652.22
2023-03-29T21:40:55.503Z,98642.75
2023-03-29T21:43:22.471Z,98631.13
2023-03-29T21:45:50.320Z,98628.94
2023-03-29T21:48:17.663Z,98618.63
2023-03-29T21:50:47.993Z,98622.63
2023-03-29T21:53:16.246Z,98630.69
2023-03-29T21:55:43.036Z,98622.63
2023-03-29T21:58:09.922Z,98626.34
2023-03-29T22:00:36.839Z,98616.16
2023-03-29T22:03:04.100Z,98625.78
2023-03-29T22:05:31.210Z,98619.34
2023-03-29T22:07:58.708Z,98615.00
2023-03-29T22:10:27.357Z,98614.78
2023-03-29T22:12:54.271Z,98615.00
2023-03-29T22:15:21.050Z,98616.63
2023-03-29T22:17:48.526Z,98617.69
2023-03-29T22:20:15.764Z,98614.16
2023-03-29T22:22:45.236Z,98616.06
2023-03-29T22:25:12.718Z,98616.63
2023-03-29T22:27:42.518Z,98620.97
2023-03-29T22:30:10.930Z,98618.53
2023-03-29T22:32:37.820Z,98601.78
2023-03-29T22:35:06.394Z,98609.03
2023-03-29T22:37:33.363Z,98610.56
2023-03-29T22:40:00.220Z,98607.63
2023-03-29T22:42:27.022Z,98604.94
2023-03-29T22:44:55.425Z,98613.84
2023-03-29T22:47:22.313Z,98617.59
2023-03-29T22:49:49.176Z,98602.72
2023-03-29T22:52:16.169Z,98593.22
2023-03-29T22:54:42.982Z,98594.88
2023-03-29T22:57:09.828Z,98590.31
2023-03-29T22:59:36.738Z,98585.16
2023-03-29T23:02:05.141Z,98578.72
2023-03-29T23:04:32.269Z,98582.22
2023-03-29T23:07:00.245Z,98575.81
2023-03-29T23:09:27.013Z,98573.34
2023-03-29T23:11:53.878Z,98574.38
2023-03-29T23:14:20.661Z,98572.97
2023-03-29T23:16:47.489Z,98586.22
2023-03-29T23:19:15.861Z,98593.72
2023-03-29T23:21:42.644Z,98598.28
2023-03-29T23:24:09.445Z,98605.06
2023-03-29T23:26:37.604Z,98623.34
2023-03-29T23:29:04.495Z,98629.75
2023-03-29T23:31:33.758Z,98621.13
2023-03-29T23:34:00.740Z,98605.78
2023-03-29T23:36:31.485Z,98595.03
2023-03-29T23:38:59.618Z,98599.56
2023-03-29T23:41:30.623Z,98622.41
2023-03-29T23:43:57.861Z,98600.03
2023-03-29T23:46:27.502Z,98605.88
2023-03-29T23:48:54.615Z,98605.19
2023-03-29T23:51:28.976Z,98599.81
2023-03-29T23:53:57.482Z,98596.53
2023-03-29T23:56:24.483Z,98610.81
2023-03-29T23:58:51.785Z,98616.19
